sensor_id;sensor_type;location;lat;lon;timestamp;temperature;humidity
29849;DHT22;16728;50.832;5.590;2023-08-07T00:02:10;13.60;99.90
29849;DHT22;16728;50.832;5.590;2023-08-07T00:05:12;13.60;99.90
29849;DHT22;16728;50.832;5.590;2023-08-07T00:11:17;13.60;99.90
29849;DHT22;16728;50.832;5.590;2023-08-07T00:14:19;13.60;99.90
29849;DHT22;16728;50.832;5.590;2023-08-07T00:17:21;13.60;99.90
29849;DHT22;16728;50.832;5.590;2023-08-07T00:20:23;13.60;99.90
29849;DHT22;16728;50.832;5.590;2023-08-07T00:23:25;13.60;99.90
29849;DHT22;16728;50.832;5.590;2023-08-07T00:26:35;13.60;99.90
29849;DHT22;16728;50.832;5.590;2023-08-07T00:29:36;13.60;99.90
29849;DHT22;16728;50.832;5.590;2023-08-07T00:32:38;13.60;99.90
29849;DHT22;16728;50.832;5.590;2023-08-07T00:35:40;13.60;99.90
29849;DHT22;16728;50.832;5.590;2023-08-07T00:38:42;13.60;99.90
29849;DHT22;16728;50.832;5.590;2023-08-07T00:41:44;13.60;99.90
29849;DHT22;16728;50.832;5.590;2023-08-07T00:44:46;13.60;99.90
29849;DHT22;16728;50.832;5.590;2023-08-07T00:47:48;13.60;99.90
29849;DHT22;16728;50.832;5.590;2023-08-07T00:50:51;13.60;99.90
29849;DHT22;16728;50.832;5.590;2023-08-07T00:53:54;13.60;99.90
29849;DHT22;16728;50.832;5.590;2023-08-07T00:56:59;13.60;99.90
29849;DHT22;16728;50.832;5.590;2023-08-07T01:00:06;13.60;99.90
29849;DHT22;16728;50.832;5.590;2023-08-07T01:03:11;13.60;99.90
29849;DHT22;16728;50.832;5.590;2023-08-07T01:06:15;13.60;99.90
29849;DHT22;16728;50.832;5.590;2023-08-07T01:09:17;13.50;99.90
29849;DHT22;16728;50.832;5.590;2023-08-07T01:12:24;13.50;99.90
29849;DHT22;16728;50.832;5.590;2023-08-07T01:15:30;13.50;99.90
29849;DHT22;16728;50.832;5.590;2023-08-07T01:18:35;13.50;99.90
29849;DHT22;16728;50.832;5.590;2023-08-07T01:21:38;13.60;99.90
29849;DHT22;16728;50.832;5.590;2023-08-07T01:24:42;13.60;99.90
29849;DHT22;16728;50.832;5.590;2023-08-07T01:28:36;13.60;99.90
29849;DHT22;16728;50.832;5.590;2023-08-07T01:31:20;13.50;99.90
29849;DHT22;16728;50.832;5.590;2023-08-07T01:34:25;13.60;99.90
29849;DHT22;16728;50.832;5.590;2023-08-07T01:37:31;13.50;99.90
29849;DHT22;16728;50.832;5.590;2023-08-07T01:40:34;13.50;99.90
29849;DHT22;16728;50.832;5.590;2023-08-07T01:43:37;13.50;99.90
29849;DHT22;16728;50.832;5.590;2023-08-07T01:46:39;13.50;99.90
29849;DHT22;16728;50.832;5.590;2023-08-07T01:49:41;13.50;99.90
29849;DHT22;16728;50.832;5.590;2023-08-07T01:52:44;13.50;99.90
29849;DHT22;16728;50.832;5.590;2023-08-07T01:55:46;13.50;99.90
29849;DHT22;16728;50.832;5.590;2023-08-07T01:58:48;13.50;99.90
29849;DHT22;16728;50.832;5.590;2023-08-07T02:01:52;13.50;99.90
29849;DHT22;16728;50.832;5.590;2023-08-07T02:04:55;13.50;99.90
29849;DHT22;16728;50.832;5.590;2023-08-07T02:07:57;13.40;99.90
29849;DHT22;16728;50.832;5.590;2023-08-07T02:10:59;13.50;99.90
29849;DHT22;16728;50.832;5.590;2023-08-07T02:14:03;13.40;99.90
29849;DHT22;16728;50.832;5.590;2023-08-07T02:17:05;13.40;99.90
29849;DHT22;16728;50.832;5.590;2023-08-07T02:20:07;13.40;99.90
29849;DHT22;16728;50.832;5.590;2023-08-07T02:23:09;13.40;99.90
29849;DHT22;16728;50.832;5.590;2023-08-07T02:26:11;13.40;99.90
29849;DHT22;16728;50.832;5.590;2023-08-07T02:29:13;13.40;99.90
29849;DHT22;16728;50.832;5.590;2023-08-07T02:32:15;13.40;99.90
29849;DHT22;16728;50.832;5.590;2023-08-07T02:35:16;13.40;99.90
29849;DHT22;16728;50.832;5.590;2023-08-07T02:38:18;13.40;99.90
29849;DHT22;16728;50.832;5.590;2023-08-07T02:41:20;13.40;99.90
29849;DHT22;16728;50.832;5.590;2023-08-07T02:44:22;13.40;99.90
29849;DHT22;16728;50.832;5.590;2023-08-07T02:47:24;13.30;99.90
29849;DHT22;16728;50.832;5.590;2023-08-07T02:50:26;13.40;99.90
29849;DHT22;16728;50.832;5.590;2023-08-07T02:53:31;13.30;99.90
29849;DHT22;16728;50.832;5.590;2023-08-07T02:56:33;13.30;99.90
29849;DHT22;16728;50.832;5.590;2023-08-07T02:59:35;13.30;99.90
29849;DHT22;16728;50.832;5.590;2023-08-07T03:02:37;13.30;99.90
29849;DHT22;16728;50.832;5.590;2023-08-07T03:05:39;13.30;99.90
29849;DHT22;16728;50.832;5.590;2023-08-07T03:08:41;13.30;99.90
29849;DHT22;16728;50.832;5.590;2023-08-07T03:11:45;13.30;99.90
29849;DHT22;16728;50.832;5.590;2023-08-07T03:14:47;13.30;99.90
29849;DHT22;16728;50.832;5.590;2023-08-07T03:17:49;13.40;99.90
29849;DHT22;16728;50.832;5.590;2023-08-07T03:21:00;13.30;99.90
29849;DHT22;16728;50.832;5.590;2023-08-07T03:24:02;13.30;99.90
29849;DHT22;16728;50.832;5.590;2023-08-07T03:27:04;13.30;99.90
29849;DHT22;16728;50.832;5.590;2023-08-07T03:30:07;13.30;99.90
29849;DHT22;16728;50.832;5.590;2023-08-07T03:33:09;13.30;99.90
29849;DHT22;16728;50.832;5.590;2023-08-07T03:36:14;13.20;99.90
29849;DHT22;16728;50.832;5.590;2023-08-07T03:39:15;13.20;99.90
29849;DHT22;16728;50.832;5.590;2023-08-07T03:42:17;13.20;99.90
29849;DHT22;16728;50.832;5.590;2023-08-07T03:45:19;13.20;99.90
29849;DHT22;16728;50.832;5.590;2023-08-07T03:48:21;13.20;99.90
29849;DHT22;16728;50.832;5.590;2023-08-07T03:51:23;13.20;99.90
29849;DHT22;16728;50.832;5.590;2023-08-07T03:54:25;13.20;99.90
29849;DHT22;16728;50.832;5.590;2023-08-07T03:57:27;13.10;99.90
29849;DHT22;16728;50.832;5.590;2023-08-07T04:00:29;13.10;99.90
29849;DHT22;16728;50.832;5.590;2023-08-07T04:03:34;13.10;99.90
29849;DHT22;16728;50.832;5.590;2023-08-07T04:06:37;13.10;99.90
29849;DHT22;16728;50.832;5.590;2023-08-07T04:09:39;13.00;99.90
29849;DHT22;16728;50.832;5.590;2023-08-07T04:12:42;13.00;99.90
29849;DHT22;16728;50.832;5.590;2023-08-07T04:15:44;13.00;99.90
29849;DHT22;16728;50.832;5.590;2023-08-07T04:18:46;13.00;99.90
29849;DHT22;16728;50.832;5.590;2023-08-07T04:21:48;13.00;99.90
29849;DHT22;16728;50.832;5.590;2023-08-07T04:24:50;13.00;99.90
29849;DHT22;16728;50.832;5.590;2023-08-07T04:27:52;13.00;99.90
29849;DHT22;16728;50.832;5.590;2023-08-07T04:30:54;13.00;99.90
29849;DHT22;16728;50.832;5.590;2023-08-07T04:33:56;13.00;99.90
29849;DHT22;16728;50.832;5.590;2023-08-07T04:36:58;13.00;99.90
29849;DHT22;16728;50.832;5.590;2023-08-07T04:40:00;12.90;99.90
29849;DHT22;16728;50.832;5.590;2023-08-07T04:43:02;12.90;99.90
29849;DHT22;16728;50.832;5.590;2023-08-07T04:46:04;12.90;99.90
29849;DHT22;16728;50.832;5.590;2023-08-07T04:49:06;12.90;99.90
29849;DHT22;16728;50.832;5.590;2023-08-07T04:52:08;12.90;99.90
29849;DHT22;16728;50.832;5.590;2023-08-07T04:55:26;12.90;99.90
29849;DHT22;16728;50.832;5.590;2023-08-07T04:58:31;12.90;99.90
29849;DHT22;16728;50.832;5.590;2023-08-07T05:01:33;12.90;99.90
29849;DHT22;16728;50.832;5.590;2023-08-07T05:04:35;13.00;99.90
29849;DHT22;16728;50.832;5.590;2023-08-07T05:07:37;13.00;99.90
29849;DHT22;16728;50.832;5.590;2023-08-07T05:10:41;13.00;99.90
29849;DHT22;16728;50.832;5.590;2023-08-07T05:13:46;13.00;99.90
29849;DHT22;16728;50.832;5.590;2023-08-07T05:16:48;13.00;99.90
29849;DHT22;16728;50.832;5.590;2023-08-07T05:19:50;13.00;99.90
29849;DHT22;16728;50.832;5.590;2023-08-07T05:22:52;13.00;99.90
29849;DHT22;16728;50.832;5.590;2023-08-07T05:25:54;13.10;99.90
29849;DHT22;16728;50.832;5.590;2023-08-07T05:28:56;13.10;99.90
29849;DHT22;16728;50.832;5.590;2023-08-07T05:31:59;13.10;99.90
29849;DHT22;16728;50.832;5.590;2023-08-07T05:35:01;13.10;99.90
29849;DHT22;16728;50.832;5.590;2023-08-07T05:38:03;13.10;99.90
29849;DHT22;16728;50.832;5.590;2023-08-07T05:41:05;13.10;99.90
29849;DHT22;16728;50.832;5.590;2023-08-07T05:44:07;13.10;99.90
29849;DHT22;16728;50.832;5.590;2023-08-07T05:47:09;13.10;99.90
29849;DHT22;16728;50.832;5.590;2023-08-07T05:50:11;13.20;99.90
29849;DHT22;16728;50.832;5.590;2023-08-07T05:53:13;13.20;99.90
29849;DHT22;16728;50.832;5.590;2023-08-07T05:56:14;13.20;99.90
29849;DHT22;16728;50.832;5.590;2023-08-07T05:59:16;13.20;99.90
29849;DHT22;16728;50.832;5.590;2023-08-07T06:02:18;13.30;99.90
29849;DHT22;16728;50.832;5.590;2023-08-07T06:05:21;13.30;99.90
29849;DHT22;16728;50.832;5.590;2023-08-07T06:08:22;13.30;99.90
29849;DHT22;16728;50.832;5.590;2023-08-07T06:11:24;13.40;99.90
29849;DHT22;16728;50.832;5.590;2023-08-07T06:14:26;13.40;99.90
29849;DHT22;16728;50.832;5.590;2023-08-07T06:17:28;13.40;99.90
29849;DHT22;16728;50.832;5.590;2023-08-07T06:20:30;13.50;99.90
29849;DHT22;16728;50.832;5.590;2023-08-07T06:23:36;13.50;99.90
29849;DHT22;16728;50.832;5.590;2023-08-07T06:26:39;13.50;99.90
29849;DHT22;16728;50.832;5.590;2023-08-07T06:29:41;13.50;99.90
29849;DHT22;16728;50.832;5.590;2023-08-07T06:32:43;13.50;99.90
29849;DHT22;16728;50.832;5.590;2023-08-07T06:35:46;13.60;99.90
29849;DHT22;16728;50.832;5.590;2023-08-07T06:38:49;13.60;99.90
29849;DHT22;16728;50.832;5.590;2023-08-07T06:41:51;13.60;99.90
29849;DHT22;16728;50.832;5.590;2023-08-07T06:44:53;13.60;99.90
29849;DHT22;16728;50.832;5.590;2023-08-07T06:47:55;13.60;99.90
29849;DHT22;16728;50.832;5.590;2023-08-07T06:50:57;13.70;99.90
29849;DHT22;16728;50.832;5.590;2023-08-07T06:53:59;13.70;99.90
29849;DHT22;16728;50.832;5.590;2023-08-07T06:57:01;13.70;99.90
29849;DHT22;16728;50.832;5.590;2023-08-07T07:00:04;13.80;99.90
29849;DHT22;16728;50.832;5.590;2023-08-07T07:03:06;13.90;99.90
29849;DHT22;16728;50.832;5.590;2023-08-07T07:06:09;13.80;99.90
29849;DHT22;16728;50.832;5.590;2023-08-07T07:09:14;13.90;99.90
29849;DHT22;16728;50.832;5.590;2023-08-07T07:12:20;14.00;99.90
29849;DHT22;16728;50.832;5.590;2023-08-07T07:15:22;14.10;99.90
29849;DHT22;16728;50.832;5.590;2023-08-07T07:18:35;14.10;99.90
29849;DHT22;16728;50.832;5.590;2023-08-07T07:21:37;14.20;99.90
29849;DHT22;16728;50.832;5.590;2023-08-07T07:24:39;14.30;99.90
29849;DHT22;16728;50.832;5.590;2023-08-07T07:27:41;14.40;99.90
29849;DHT22;16728;50.832;5.590;2023-08-07T07:30:43;14.50;99.90
29849;DHT22;16728;50.832;5.590;2023-08-07T07:33:45;14.60;99.90
29849;DHT22;16728;50.832;5.590;2023-08-07T07:36:48;14.70;99.90
29849;DHT22;16728;50.832;5.590;2023-08-07T07:39:50;14.70;99.90
29849;DHT22;16728;50.832;5.590;2023-08-07T07:42:52;14.70;99.90
29849;DHT22;16728;50.832;5.590;2023-08-07T07:45:54;14.80;99.90
29849;DHT22;16728;50.832;5.590;2023-08-07T07:49:10;14.80;99.90
29849;DHT22;16728;50.832;5.590;2023-08-07T07:52:13;14.70;99.90
29849;DHT22;16728;50.832;5.590;2023-08-07T07:55:16;14.80;99.90
29849;DHT22;16728;50.832;5.590;2023-08-07T07:58:19;15.00;99.90
29849;DHT22;16728;50.832;5.590;2023-08-07T08:01:20;15.00;99.90
29849;DHT22;16728;50.832;5.590;2023-08-07T08:04:22;15.10;99.90
29849;DHT22;16728;50.832;5.590;2023-08-07T08:07:25;15.30;99.90
29849;DHT22;16728;50.832;5.590;2023-08-07T08:10:27;15.40;99.90
29849;DHT22;16728;50.832;5.590;2023-08-07T08:13:29;15.50;99.90
29849;DHT22;16728;50.832;5.590;2023-08-07T08:16:31;15.60;99.90
29849;DHT22;16728;50.832;5.590;2023-08-07T08:19:42;15.70;99.90
29849;DHT22;16728;50.832;5.590;2023-08-07T08:22:52;15.70;99.90
29849;DHT22;16728;50.832;5.590;2023-08-07T08:25:54;15.70;99.90
29849;DHT22;16728;50.832;5.590;2023-08-07T08:28:56;15.80;99.90
29849;DHT22;16728;50.832;5.590;2023-08-07T08:32:06;15.80;99.90
29849;DHT22;16728;50.832;5.590;2023-08-07T08:35:11;15.90;99.90
29849;DHT22;16728;50.832;5.590;2023-08-07T08:38:19;16.00;99.90
29849;DHT22;16728;50.832;5.590;2023-08-07T08:41:24;16.00;99.90
29849;DHT22;16728;50.832;5.590;2023-08-07T08:44:29;16.10;99.90
29849;DHT22;16728;50.832;5.590;2023-08-07T08:47:41;16.10;99.90
29849;DHT22;16728;50.832;5.590;2023-08-07T08:50:43;16.20;99.90
29849;DHT22;16728;50.832;5.590;2023-08-07T08:53:46;16.10;99.90
29849;DHT22;16728;50.832;5.590;2023-08-07T08:56:49;16.10;99.90
29849;DHT22;16728;50.832;5.590;2023-08-07T08:59:52;16.20;99.90
29849;DHT22;16728;50.832;5.590;2023-08-07T09:02:57;16.20;99.90
29849;DHT22;16728;50.832;5.590;2023-08-07T09:06:01;16.40;99.90
29849;DHT22;16728;50.832;5.590;2023-08-07T09:09:03;16.50;99.90
29849;DHT22;16728;50.832;5.590;2023-08-07T09:12:06;16.60;99.90
29849;DHT22;16728;50.832;5.590;2023-08-07T09:15:25;16.70;99.90
29849;DHT22;16728;50.832;5.590;2023-08-07T09:18:28;16.70;99.90
29849;DHT22;16728;50.832;5.590;2023-08-07T09:21:29;16.80;99.90
29849;DHT22;16728;50.832;5.590;2023-08-07T09:24:44;16.90;99.90
29849;DHT22;16728;50.832;5.590;2023-08-07T09:27:46;16.90;99.90
29849;DHT22;16728;50.832;5.590;2023-08-07T09:30:58;17.00;99.90
29849;DHT22;16728;50.832;5.590;2023-08-07T09:34:04;16.80;99.90
29849;DHT22;16728;50.832;5.590;2023-08-07T09:37:08;17.00;99.90
29849;DHT22;16728;50.832;5.590;2023-08-07T09:40:11;17.10;99.90
29849;DHT22;16728;50.832;5.590;2023-08-07T09:43:21;17.10;99.90
29849;DHT22;16728;50.832;5.590;2023-08-07T09:46:25;17.10;99.90
29849;DHT22;16728;50.832;5.590;2023-08-07T09:49:32;17.10;99.90
29849;DHT22;16728;50.832;5.590;2023-08-07T09:52:46;17.20;99.90
29849;DHT22;16728;50.832;5.590;2023-08-07T09:59:02;17.10;99.90
29849;DHT22;16728;50.832;5.590;2023-08-07T10:02:48;17.10;99.90
29849;DHT22;16728;50.832;5.590;2023-08-07T10:05:51;17.10;99.90
29849;DHT22;16728;50.832;5.590;2023-08-07T10:08:54;17.10;99.90
29849;DHT22;16728;50.832;5.590;2023-08-07T10:11:56;17.20;99.90
29849;DHT22;16728;50.832;5.590;2023-08-07T10:15:00;17.20;99.90
29849;DHT22;16728;50.832;5.590;2023-08-07T10:18:02;17.30;99.90
29849;DHT22;16728;50.832;5.590;2023-08-07T10:21:05;17.40;99.90
29849;DHT22;16728;50.832;5.590;2023-08-07T10:24:11;17.50;99.90
29849;DHT22;16728;50.832;5.590;2023-08-07T10:27:16;17.50;99.90
29849;DHT22;16728;50.832;5.590;2023-08-07T10:30:20;17.50;99.90
29849;DHT22;16728;50.832;5.590;2023-08-07T10:33:23;17.30;99.90
29849;DHT22;16728;50.832;5.590;2023-08-07T10:36:35;17.20;99.90
29849;DHT22;16728;50.832;5.590;2023-08-07T10:40:01;17.20;99.90
29849;DHT22;16728;50.832;5.590;2023-08-07T10:43:17;17.40;99.90
29849;DHT22;16728;50.832;5.590;2023-08-07T10:46:22;17.60;99.90
29849;DHT22;16728;50.832;5.590;2023-08-07T10:49:38;17.70;99.90
29849;DHT22;16728;50.832;5.590;2023-08-07T10:52:41;17.80;99.90
29849;DHT22;16728;50.832;5.590;2023-08-07T10:55:44;17.80;99.90
29849;DHT22;16728;50.832;5.590;2023-08-07T11:06:13;17.90;99.90
29849;DHT22;16728;50.832;5.590;2023-08-07T11:09:15;17.90;99.90
29849;DHT22;16728;50.832;5.590;2023-08-07T11:12:18;17.90;99.90
29849;DHT22;16728;50.832;5.590;2023-08-07T11:15:20;18.00;99.90
29849;DHT22;16728;50.832;5.590;2023-08-07T11:18:23;18.10;99.90
29849;DHT22;16728;50.832;5.590;2023-08-07T11:21:25;18.00;99.90
29849;DHT22;16728;50.832;5.590;2023-08-07T11:24:29;18.00;99.90
29849;DHT22;16728;50.832;5.590;2023-08-07T11:27:31;18.00;99.90
29849;DHT22;16728;50.832;5.590;2023-08-07T11:30:34;18.20;99.90
29849;DHT22;16728;50.832;5.590;2023-08-07T11:33:37;18.20;99.90
29849;DHT22;16728;50.832;5.590;2023-08-07T11:36:42;18.30;99.90
29849;DHT22;16728;50.832;5.590;2023-08-07T11:39:45;18.30;99.90
29849;DHT22;16728;50.832;5.590;2023-08-07T11:42:47;18.20;99.90
29849;DHT22;16728;50.832;5.590;2023-08-07T11:45:50;18.00;99.90
29849;DHT22;16728;50.832;5.590;2023-08-07T11:48:52;18.00;99.90
29849;DHT22;16728;50.832;5.590;2023-08-07T11:51:56;17.90;99.90
29849;DHT22;16728;50.832;5.590;2023-08-07T11:55:02;17.90;99.90
29849;DHT22;16728;50.832;5.590;2023-08-07T11:58:07;18.00;99.90
29849;DHT22;16728;50.832;5.590;2023-08-07T12:01:18;18.10;99.90
29849;DHT22;16728;50.832;5.590;2023-08-07T12:04:31;18.20;99.90
29849;DHT22;16728;50.832;5.590;2023-08-07T12:07:38;18.20;99.90
29849;DHT22;16728;50.832;5.590;2023-08-07T12:10:41;18.30;99.90
29849;DHT22;16728;50.832;5.590;2023-08-07T12:13:43;18.30;99.90
29849;DHT22;16728;50.832;5.590;2023-08-07T12:16:47;18.20;99.90
29849;DHT22;16728;50.832;5.590;2023-08-07T12:19:50;18.20;99.90
29849;DHT22;16728;50.832;5.590;2023-08-07T12:22:52;18.30;99.90
29849;DHT22;16728;50.832;5.590;2023-08-07T12:25:54;18.30;99.90
29849;DHT22;16728;50.832;5.590;2023-08-07T12:28:56;18.50;99.90
29849;DHT22;16728;50.832;5.590;2023-08-07T12:31:58;18.60;99.90
29849;DHT22;16728;50.832;5.590;2023-08-07T12:35:03;18.70;99.90
29849;DHT22;16728;50.832;5.590;2023-08-07T12:38:08;18.70;99.90
29849;DHT22;16728;50.832;5.590;2023-08-07T12:41:11;18.70;99.90
29849;DHT22;16728;50.832;5.590;2023-08-07T12:44:16;18.70;99.90
29849;DHT22;16728;50.832;5.590;2023-08-07T12:47:18;18.70;99.90
29849;DHT22;16728;50.832;5.590;2023-08-07T12:50:20;18.70;99.90
29849;DHT22;16728;50.832;5.590;2023-08-07T12:53:22;18.80;99.90
29849;DHT22;16728;50.832;5.590;2023-08-07T12:56:24;18.90;99.90
29849;DHT22;16728;50.832;5.590;2023-08-07T12:59:26;19.00;99.90
29849;DHT22;16728;50.832;5.590;2023-08-07T13:02:28;18.90;99.90
29849;DHT22;16728;50.832;5.590;2023-08-07T13:05:30;18.90;99.90
29849;DHT22;16728;50.832;5.590;2023-08-07T13:08:32;19.00;99.90
29849;DHT22;16728;50.832;5.590;2023-08-07T13:11:36;19.10;99.90
29849;DHT22;16728;50.832;5.590;2023-08-07T13:14:38;19.20;99.90
29849;DHT22;16728;50.832;5.590;2023-08-07T13:17:40;19.20;99.90
29849;DHT22;16728;50.832;5.590;2023-08-07T13:20:43;19.30;99.90
29849;DHT22;16728;50.832;5.590;2023-08-07T13:23:45;19.30;99.90
29849;DHT22;16728;50.832;5.590;2023-08-07T13:26:55;19.20;99.90
29849;DHT22;16728;50.832;5.590;2023-08-07T13:29:57;19.20;99.90
29849;DHT22;16728;50.832;5.590;2023-08-07T13:32:59;19.20;99.90
29849;DHT22;16728;50.832;5.590;2023-08-07T13:36:02;19.20;99.90
29849;DHT22;16728;50.832;5.590;2023-08-07T13:39:04;19.20;99.90
29849;DHT22;16728;50.832;5.590;2023-08-07T13:42:07;19.10;99.90
29849;DHT22;16728;50.832;5.590;2023-08-07T13:45:24;19.10;99.90
29849;DHT22;16728;50.832;5.590;2023-08-07T13:48:26;19.10;99.90
29849;DHT22;16728;50.832;5.590;2023-08-07T13:51:29;19.00;99.90
29849;DHT22;16728;50.832;5.590;2023-08-07T13:54:31;19.00;99.90
29849;DHT22;16728;50.832;5.590;2023-08-07T13:57:33;19.00;99.90
29849;DHT22;16728;50.832;5.590;2023-08-07T14:00:41;18.90;99.90
29849;DHT22;16728;50.832;5.590;2023-08-07T14:03:44;18.90;99.90
29849;DHT22;16728;50.832;5.590;2023-08-07T14:06:47;18.90;99.90
29849;DHT22;16728;50.832;5.590;2023-08-07T14:09:49;19.00;99.90
29849;DHT22;16728;50.832;5.590;2023-08-07T14:12:51;19.00;99.90
29849;DHT22;16728;50.832;5.590;2023-08-07T14:15:56;19.10;99.90
29849;DHT22;16728;50.832;5.590;2023-08-07T14:19:16;19.20;99.90
29849;DHT22;16728;50.832;5.590;2023-08-07T14:25:39;19.30;99.90
29849;DHT22;16728;50.832;5.590;2023-08-07T14:28:41;19.30;99.90
29849;DHT22;16728;50.832;5.590;2023-08-07T14:31:43;19.30;99.90
29849;DHT22;16728;50.832;5.590;2023-08-07T14:38:23;19.40;99.90
29849;DHT22;16728;50.832;5.590;2023-08-07T14:41:25;19.50;99.90
29849;DHT22;16728;50.832;5.590;2023-08-07T14:44:27;19.60;99.90
29849;DHT22;16728;50.832;5.590;2023-08-07T14:47:49;19.70;99.90
29849;DHT22;16728;50.832;5.590;2023-08-07T14:50:53;19.70;99.90
29849;DHT22;16728;50.832;5.590;2023-08-07T15:01:00;19.60;99.90
29849;DHT22;16728;50.832;5.590;2023-08-07T15:10:33;19.40;99.90
29849;DHT22;16728;50.832;5.590;2023-08-07T15:13:37;19.30;99.90
29849;DHT22;16728;50.832;5.590;2023-08-07T15:23:26;19.40;99.90
29849;DHT22;16728;50.832;5.590;2023-08-07T15:26:54;19.40;99.90
29849;DHT22;16728;50.832;5.590;2023-08-07T15:33:37;19.30;99.90
29849;DHT22;16728;50.832;5.590;2023-08-07T15:43:37;19.10;99.90
29849;DHT22;16728;50.832;5.590;2023-08-07T15:53:27;19.00;99.90
29849;DHT22;16728;50.832;5.590;2023-08-07T15:56:29;18.90;99.90
29849;DHT22;16728;50.832;5.590;2023-08-07T16:06:02;18.80;99.90
29849;DHT22;16728;50.832;5.590;2023-08-07T16:09:04;18.80;99.90
29849;DHT22;16728;50.832;5.590;2023-08-07T16:12:49;18.90;99.90
29849;DHT22;16728;50.832;5.590;2023-08-07T16:15:52;19.00;99.90
29849;DHT22;16728;50.832;5.590;2023-08-07T16:18:54;19.00;99.90
29849;DHT22;16728;50.832;5.590;2023-08-07T16:21:55;19.00;99.90
29849;DHT22;16728;50.832;5.590;2023-08-07T16:24:57;19.00;99.90
29849;DHT22;16728;50.832;5.590;2023-08-07T16:27:59;19.00;99.90
29849;DHT22;16728;50.832;5.590;2023-08-07T16:31:03;19.00;99.90
29849;DHT22;16728;50.832;5.590;2023-08-07T16:34:05;19.10;99.90
29849;DHT22;16728;50.832;5.590;2023-08-07T16:37:07;19.10;99.90
29849;DHT22;16728;50.832;5.590;2023-08-07T16:40:09;19.10;99.90
29849;DHT22;16728;50.832;5.590;2023-08-07T16:43:11;19.20;99.90
29849;DHT22;16728;50.832;5.590;2023-08-07T16:46:14;19.20;99.90
29849;DHT22;16728;50.832;5.590;2023-08-07T16:49:18;19.20;99.90
29849;DHT22;16728;50.832;5.590;2023-08-07T16:52:20;19.20;99.90
29849;DHT22;16728;50.832;5.590;2023-08-07T16:55:23;19.20;99.90
29849;DHT22;16728;50.832;5.590;2023-08-07T16:58:24;19.20;99.90
29849;DHT22;16728;50.832;5.590;2023-08-07T17:01:27;19.10;99.90
29849;DHT22;16728;50.832;5.590;2023-08-07T17:04:29;19.10;99.90
29849;DHT22;16728;50.832;5.590;2023-08-07T17:07:34;19.00;99.90
29849;DHT22;16728;50.832;5.590;2023-08-07T17:10:36;19.00;99.90
29849;DHT22;16728;50.832;5.590;2023-08-07T17:13:39;18.90;99.90
29849;DHT22;16728;50.832;5.590;2023-08-07T17:16:41;18.90;99.90
29849;DHT22;16728;50.832;5.590;2023-08-07T17:19:43;18.90;99.90
29849;DHT22;16728;50.832;5.590;2023-08-07T17:22:44;18.90;99.90
29849;DHT22;16728;50.832;5.590;2023-08-07T17:25:46;18.90;99.90
29849;DHT22;16728;50.832;5.590;2023-08-07T17:28:49;18.90;99.90
29849;DHT22;16728;50.832;5.590;2023-08-07T17:31:51;18.80;99.90
29849;DHT22;16728;50.832;5.590;2023-08-07T17:34:55;18.80;99.90
29849;DHT22;16728;50.832;5.590;2023-08-07T17:37:59;18.70;99.90
29849;DHT22;16728;50.832;5.590;2023-08-07T17:41:01;18.70;99.90
29849;DHT22;16728;50.832;5.590;2023-08-07T17:44:03;18.70;99.90
29849;DHT22;16728;50.832;5.590;2023-08-07T17:47:05;18.70;99.90
29849;DHT22;16728;50.832;5.590;2023-08-07T17:50:09;18.70;99.90
29849;DHT22;16728;50.832;5.590;2023-08-07T17:53:11;18.70;99.90
29849;DHT22;16728;50.832;5.590;2023-08-07T17:56:13;18.70;99.90
29849;DHT22;16728;50.832;5.590;2023-08-07T17:59:15;18.70;99.90
29849;DHT22;16728;50.832;5.590;2023-08-07T18:02:17;18.70;99.90
29849;DHT22;16728;50.832;5.590;2023-08-07T18:05:19;18.60;99.90
29849;DHT22;16728;50.832;5.590;2023-08-07T18:08:21;18.60;99.90
29849;DHT22;16728;50.832;5.590;2023-08-07T18:11:23;18.60;99.90
29849;DHT22;16728;50.832;5.590;2023-08-07T18:14:24;18.50;99.90
29849;DHT22;16728;50.832;5.590;2023-08-07T18:17:27;18.50;99.90
29849;DHT22;16728;50.832;5.590;2023-08-07T18:20:31;18.50;99.90
29849;DHT22;16728;50.832;5.590;2023-08-07T18:23:33;18.50;99.90
29849;DHT22;16728;50.832;5.590;2023-08-07T18:26:35;18.40;99.90
29849;DHT22;16728;50.832;5.590;2023-08-07T18:29:37;18.30;99.90
29849;DHT22;16728;50.832;5.590;2023-08-07T18:32:40;18.20;99.90
29849;DHT22;16728;50.832;5.590;2023-08-07T18:35:43;18.20;99.90
29849;DHT22;16728;50.832;5.590;2023-08-07T18:38:45;18.20;99.90
29849;DHT22;16728;50.832;5.590;2023-08-07T18:41:47;18.10;99.90
29849;DHT22;16728;50.832;5.590;2023-08-07T18:44:49;18.10;99.90
29849;DHT22;16728;50.832;5.590;2023-08-07T18:47:51;18.00;99.90
29849;DHT22;16728;50.832;5.590;2023-08-07T18:50:53;18.00;99.90
29849;DHT22;16728;50.832;5.590;2023-08-07T18:53:56;18.00;99.90
29849;DHT22;16728;50.832;5.590;2023-08-07T18:56:58;17.90;99.90
29849;DHT22;16728;50.832;5.590;2023-08-07T19:00:03;17.90;99.90
29849;DHT22;16728;50.832;5.590;2023-08-07T19:03:07;17.80;99.90
29849;DHT22;16728;50.832;5.590;2023-08-07T19:06:09;17.80;99.90
29849;DHT22;16728;50.832;5.590;2023-08-07T19:09:11;17.70;99.90
29849;DHT22;16728;50.832;5.590;2023-08-07T19:12:14;17.70;99.90
29849;DHT22;16728;50.832;5.590;2023-08-07T19:15:16;17.60;99.90
29849;DHT22;16728;50.832;5.590;2023-08-07T19:18:19;17.60;99.90
29849;DHT22;16728;50.832;5.590;2023-08-07T19:21:21;17.60;99.90
29849;DHT22;16728;50.832;5.590;2023-08-07T19:24:22;17.50;99.90
29849;DHT22;16728;50.832;5.590;2023-08-07T19:27:24;17.40;99.90
29849;DHT22;16728;50.832;5.590;2023-08-07T19:30:27;17.40;99.90
29849;DHT22;16728;50.832;5.590;2023-08-07T19:33:33;17.30;99.90
29849;DHT22;16728;50.832;5.590;2023-08-07T19:36:38;17.30;99.90
29849;DHT22;16728;50.832;5.590;2023-08-07T19:39:55;17.20;99.90
29849;DHT22;16728;50.832;5.590;2023-08-07T19:42:56;17.20;99.90
29849;DHT22;16728;50.832;5.590;2023-08-07T19:45:58;17.10;99.90
29849;DHT22;16728;50.832;5.590;2023-08-07T19:49:00;17.00;99.90
29849;DHT22;16728;50.832;5.590;2023-08-07T19:52:03;17.00;99.90
29849;DHT22;16728;50.832;5.590;2023-08-07T19:55:05;16.90;99.90
29849;DHT22;16728;50.832;5.590;2023-08-07T19:58:07;16.80;99.90
29849;DHT22;16728;50.832;5.590;2023-08-07T20:01:09;16.70;99.90
29849;DHT22;16728;50.832;5.590;2023-08-07T20:04:11;16.70;99.90
29849;DHT22;16728;50.832;5.590;2023-08-07T20:07:15;16.60;99.90
29849;DHT22;16728;50.832;5.590;2023-08-07T20:10:17;16.60;99.90
29849;DHT22;16728;50.832;5.590;2023-08-07T20:13:24;16.40;99.90
29849;DHT22;16728;50.832;5.590;2023-08-07T20:16:26;16.40;99.90
29849;DHT22;16728;50.832;5.590;2023-08-07T20:19:33;16.40;99.90
29849;DHT22;16728;50.832;5.590;2023-08-07T20:22:35;16.30;99.90
29849;DHT22;16728;50.832;5.590;2023-08-07T20:25:37;16.30;99.90